createdAt,value
2022-08-22T00:01:10.754Z,32.43
2022-08-22T00:02:39.671Z,32.28
2022-08-22T00:02:45.721Z,35.94
2022-08-22T00:02:47.978Z,38.45
2022-08-22T00:03:15.795Z,32.79
2022-08-22T00:04:06.467Z,32.79
2022-08-22T00:05:46.449Z,33.04
2022-08-22T00:07:13.478Z,32.85
2022-08-22T00:08:28.113Z,32.50
2022-08-22T00:09:56.290Z,32.35
2022-08-22T00:11:16.001Z,32.47
2022-08-22T00:12:48.374Z,32.42
2022-08-22T00:14:01.847Z,32.77
2022-08-22T00:15:31.574Z,32.87
2022-08-22T00:16:57.893Z,32.70
2022-08-22T00:18:41.217Z,32.42
2022-08-22T00:20:04.419Z,32.99
2022-08-22T00:21:58.917Z,32.62
2022-08-22T00:23:18.738Z,32.17
2022-08-22T00:24:34.853Z,32.31
2022-08-22T00:25:58.758Z,32.53
2022-08-22T00:27:12.427Z,32.33
2022-08-22T00:28:25.609Z,32.37
2022-08-22T00:29:51.781Z,32.24
2022-08-22T00:31:37.838Z,32.34
2022-08-22T00:32:52.716Z,32.58
2022-08-22T00:34:26.441Z,32.67
2022-08-22T00:35:44.843Z,32.56
2022-08-22T00:36:55.698Z,32.70
2022-08-22T00:38:10.849Z,32.88
2022-08-22T00:39:27.097Z,33.12
2022-08-22T00:40:46.579Z,33.59
2022-08-22T00:42:16.104Z,33.88
2022-08-22T00:43:51.200Z,34.40
2022-08-22T00:45:29.128Z,34.14
2022-08-22T00:46:42.409Z,34.88
2022-08-22T00:47:53.827Z,34.65
2022-08-22T00:49:33.367Z,34.88
2022-08-22T00:50:50.427Z,35.09
2022-08-22T00:52:06.191Z,34.99
2022-08-22T00:53:49.459Z,34.77
2022-08-22T00:55:25.856Z,34.27
2022-08-22T00:56:45.993Z,34.70
2022-08-22T00:58:25.387Z,34.98
2022-08-22T00:59:58.807Z,35.28
2022-08-22T01:01:11.957Z,35.20
2022-08-22T01:02:57.142Z,35.29
2022-08-22T01:04:26.991Z,35.02
2022-08-22T01:05:47.439Z,34.71
2022-08-22T01:07:05.488Z,34.74
2022-08-22T01:08:19.712Z,34.90
2022-08-22T01:10:05.561Z,34.78
2022-08-22T01:11:31.399Z,35.17
2022-08-22T01:12:55.888Z,35.08
2022-08-22T01:14:34.387Z,35.25
2022-08-22T01:15:42.502Z,35.29
2022-08-22T01:17:02.565Z,35.41
2022-08-22T01:18:20.712Z,35.44
2022-08-22T01:19:46.480Z,35.23
2022-08-22T01:21:20.710Z,35.07
2022-08-22T01:22:52.417Z,35.04
2022-08-22T01:24:17.698Z,35.06
2022-08-22T01:25:41.628Z,35.12
2022-08-22T01:27:06.481Z,35.53
2022-08-22T01:28:23.208Z,35.78
2022-08-22T01:29:58.021Z,35.93
2022-08-22T01:31:36.223Z,36.44
2022-08-22T01:32:59.836Z,36.70
2022-08-22T01:34:32.993Z,36.78
2022-08-22T01:36:16.994Z,36.99
2022-08-22T01:37:54.937Z,37.32
2022-08-22T01:39:27.370Z,37.41
2022-08-22T01:40:53.365Z,37.48
2022-08-22T01:42:38.721Z,37.55
2022-08-22T01:44:27.853Z,37.23
2022-08-22T01:45:59.419Z,37.29
2022-08-22T01:47:26.090Z,37.22
2022-08-22T01:48:47.931Z,37.63
2022-08-22T01:50:02.244Z,37.85
2022-08-22T01:51:42.891Z,38.25
2022-08-22T01:53:04.252Z,38.92
2022-08-22T01:54:31.669Z,38.91
2022-08-22T01:55:41.512Z,39.07
2022-08-22T01:56:49.795Z,39.11
2022-08-22T01:58:00.852Z,39.21
2022-08-22T01:59:17.624Z,39.78
2022-08-22T02:00:35.093Z,40.13
2022-08-22T02:01:54.239Z,40.29
2022-08-22T02:03:11.910Z,40.44
2022-08-22T02:04:20.728Z,40.95
2022-08-22T02:05:48.959Z,40.99
2022-08-22T02:07:03.225Z,41.38
2022-08-22T02:08:51.753Z,41.49
2022-08-22T02:10:18.766Z,42.13
2022-08-22T02:11:55.328Z,42.73
2022-08-22T02:13:21.860Z,43.23
2022-08-22T02:14:36.102Z,43.60
2022-08-22T02:16:07.837Z,44.54
2022-08-22T02:17:25.080Z,45.33
2022-08-22T02:18:51.434Z,45.72
2022-08-22T02:20:51.487Z,46.32
2022-08-22T02:22:31.550Z,46.87
2022-08-22T02:23:57.008Z,47.35
2022-08-22T02:25:27.191Z,48.02
2022-08-22T02:26:56.647Z,48.32
2022-08-22T02:28:10.831Z,48.39
2022-08-22T02:29:32.029Z,49.06
2022-08-22T02:30:53.980Z,49.34
2022-08-22T02:32:37.131Z,49.76
2022-08-22T02:34:00.354Z,50.29
2022-08-22T02:35:16.008Z,50.73
2022-08-22T02:36:34.906Z,50.87
2022-08-22T02:38:00.420Z,51.04
2022-08-22T02:39:42.329Z,51.74
2022-08-22T02:41:14.781Z,52.00
2022-08-22T02:42:26.157Z,52.02
2022-08-22T02:43:42.773Z,52.58
2022-08-22T02:45:16.070Z,52.97
2022-08-22T02:46:48.969Z,53.06
2022-08-22T02:48:02.348Z,52.90
2022-08-22T02:49:29.517Z,53.19
2022-08-22T02:50:41.505Z,53.56
2022-08-22T02:52:03.541Z,53.84
2022-08-22T02:53:31.843Z,54.00
2022-08-22T02:55:09.326Z,54.16
2022-08-22T02:56:34.618Z,54.44
2022-08-22T02:57:47.177Z,54.48
2022-08-22T02:59:16.890Z,54.78
2022-08-22T03:00:33.380Z,54.69
2022-08-22T03:01:43.534Z,55.00
2022-08-22T03:03:21.798Z,55.17
2022-08-22T03:04:48.818Z,55.00
2022-08-22T03:06:02.192Z,55.48
2022-08-22T03:07:32.322Z,55.55
2022-08-22T03:08:47.592Z,55.52
2022-08-22T03:10:17.858Z,55.72
2022-08-22T03:11:33.911Z,55.97
2022-08-22T03:13:11.572Z,55.89
2022-08-22T03:14:36.974Z,56.46
2022-08-22T03:16:06.090Z,56.78
2022-08-22T03:17:30.851Z,57.36
2022-08-22T03:19:14.873Z,57.30
2022-08-22T03:21:00.728Z,57.69
2022-08-22T03:22:23.933Z,57.60
2022-08-22T03:23:42.580Z,57.78
2022-08-22T03:25:18.002Z,57.86
2022-08-22T03:26:35.571Z,58.40
2022-08-22T03:27:49.482Z,58.37
2022-08-22T03:29:10.338Z,58.75
2022-08-22T03:30:31.266Z,58.71
2022-08-22T03:31:39.392Z,58.61
2022-08-22T03:33:21.207Z,58.85
2022-08-22T03:34:29.820Z,59.23
2022-08-22T03:35:47.040Z,59.05
2022-08-22T03:37:27.261Z,58.92
2022-08-22T03:38:35.365Z,59.63
2022-08-22T03:40:03.761Z,59.94
2022-08-22T03:41:33.202Z,59.78
2022-08-22T03:43:01.703Z,60.06
2022-08-22T03:44:25.870Z,60.03
2022-08-22T03:45:45.440Z,60.23
2022-08-22T03:47:30.805Z,60.35
2022-08-22T03:49:08.340Z,60.36
2022-08-22T03:50:42.160Z,60.82
2022-08-22T03:52:07.926Z,61.18
2022-08-22T03:53:26.818Z,61.21
2022-08-22T03:54:51.759Z,61.20
2022-08-22T03:56:28.972Z,61.51
2022-08-22T03:58:00.670Z,61.56
2022-08-22T03:59:28.417Z,61.51
2022-08-22T04:00:40.635Z,61.74
2022-08-22T04:02:03.618Z,61.92
2022-08-22T04:04:05.538Z,61.99
2022-08-22T04:05:52.830Z,62.40
2022-08-22T04:07:38.088Z,62.24
2022-08-22T04:09:20.157Z,62.43
2022-08-22T04:11:03.839Z,62.75
2022-08-22T04:12:33.637Z,62.87
2022-08-22T04:13:46.790Z,63.30
2022-08-22T04:15:10.911Z,63.31
2022-08-22T04:16:42.557Z,63.29
2022-08-22T04:18:20.034Z,63.30
2022-08-22T04:20:13.636Z,63.66
2022-08-22T04:21:38.216Z,63.77
2022-08-22T04:23:30.458Z,63.59
2022-08-22T04:24:52.163Z,64.00
2022-08-22T04:26:12.163Z,63.86
2022-08-22T04:27:41.678Z,64.37
2022-08-22T04:28:55.901Z,64.58
2022-08-22T04:30:09.342Z,64.47
2022-08-22T04:31:19.798Z,64.67
2022-08-22T04:32:53.366Z,64.80
2022-08-22T04:34:04.551Z,64.70
2022-08-22T04:35:19.225Z,64.75
2022-08-22T04:36:47.643Z,65.00
2022-08-22T04:38:26.500Z,64.98
2022-08-22T04:39:44.076Z,65.18
2022-08-22T04:41:26.003Z,65.13
2022-08-22T04:43:02.019Z,65.57
2022-08-22T04:44:30.249Z,65.84
2022-08-22T04:45:42.341Z,65.85
2022-08-22T04:47:04.258Z,65.97
2022-08-22T04:48:18.867Z,65.69
2022-08-22T04:49:32.720Z,65.97
2022-08-22T04:51:07.718Z,66.10
2022-08-22T04:52:34.474Z,66.46
2022-08-22T04:54:01.228Z,66.32
2022-08-22T04:55:34.647Z,66.10
2022-08-22T04:56:49.107Z,66.20
2022-08-22T04:58:18.168Z,66.42
2022-08-22T04:59:26.573Z,67.00
2022-08-22T05:00:46.667Z,67.14
2022-08-22T05:01:58.958Z,67.07
2022-08-22T05:03:06.812Z,66.96
2022-08-22T05:04:23.285Z,66.89
2022-08-22T05:05:35.641Z,66.94
2022-08-22T05:06:46.327Z,67.01
2022-08-22T05:07:59.210Z,67.15
2022-08-22T05:09:15.498Z,67.25
2022-08-22T05:10:25.821Z,67.50
2022-08-22T05:11:34.007Z,67.74
2022-08-22T05:13:02.290Z,68.00
2022-08-22T05:14:27.448Z,68.17
2022-08-22T05:15:40.222Z,68.39
2022-08-22T05:16:51.109Z,68.30
2022-08-22T05:18:01.609Z,68.11
2022-08-22T05:19:27.042Z,68.19
2022-08-22T05:20:37.038Z,68.18
2022-08-22T05:21:44.894Z,68.22
2022-08-22T05:22:59.121Z,68.71
2022-08-22T05:24:11.276Z,68.86
2022-08-22T05:25:23.748Z,69.00
2022-08-22T05:26:32.226Z,69.11
2022-08-22T05:27:45.509Z,69.05
2022-08-22T05:28:56.550Z,69.01
2022-08-22T05:30:10.959Z,68.75
2022-08-22T05:31:23.447Z,69.29
2022-08-22T05:32:56.872Z,69.44
2022-08-22T05:34:19.718Z,69.55
2022-08-22T05:35:51.591Z,69.83
2022-08-22T05:37:33.707Z,69.99
2022-08-22T05:38:52.070Z,69.90
2022-08-22T05:40:01.172Z,69.91
2022-08-22T05:41:13.536Z,70.03
2022-08-22T05:42:30.248Z,70.11
2022-08-22T05:43:42.982Z,70.09
2022-08-22T05:44:50.471Z,70.04
2022-08-22T05:45:59.342Z,70.19
2022-08-22T05:47:17.047Z,70.69
2022-08-22T05:48:33.969Z,70.83
2022-08-22T05:50:05.446Z,71.07
2022-08-22T05:51:20.532Z,71.09
2022-08-22T05:53:01.064Z,70.99
2022-08-22T05:54:16.611Z,71.14
2022-08-22T05:55:57.917Z,71.18
2022-08-22T05:57:34.007Z,71.54
2022-08-22T05:58:45.250Z,71.71
2022-08-22T05:59:56.595Z,71.97
2022-08-22T06:01:27.138Z,72.25
2022-08-22T06:02:59.441Z,72.51
2022-08-22T06:04:24.837Z,72.23
2022-08-22T06:05:34.322Z,71.98
2022-08-22T06:07:06.640Z,72.26
2022-08-22T06:08:25.189Z,72.31
2022-08-22T06:09:55.154Z,72.69
2022-08-22T06:11:33.800Z,73.03
2022-08-22T06:12:45.057Z,73.25
2022-08-22T06:14:05.444Z,73.14
2022-08-22T06:15:48.497Z,73.28
2022-08-22T06:17:17.668Z,73.74
2022-08-22T06:18:28.095Z,73.82
2022-08-22T06:19:38.564Z,73.76
2022-08-22T06:20:55.609Z,73.58
2022-08-22T06:22:03.134Z,73.58
2022-08-22T06:23:13.165Z,73.66
2022-08-22T06:24:27.039Z,73.86
2022-08-22T06:25:37.528Z,73.68
2022-08-22T06:26:48.696Z,74.25
2022-08-22T06:27:57.611Z,74.15
2022-08-22T06:29:06.149Z,74.04
2022-08-22T06:30:15.550Z,74.10
2022-08-22T06:31:44.126Z,74.08
2022-08-22T06:32:58.964Z,74.35
2022-08-22T06:34:11.780Z,74.59
2022-08-22T06:35:54.398Z,74.79
2022-08-22T06:37:03.839Z,74.86
2022-08-22T06:38:13.797Z,74.68
2022-08-22T06:39:32.947Z,74.82
2022-08-22T06:40:41.937Z,74.41
2022-08-22T06:42:14.533Z,74.29
2022-08-22T06:43:26.003Z,74.22
2022-08-22T06:44:37.846Z,74.15
2022-08-22T06:45:45.253Z,74.26
2022-08-22T06:46:55.649Z,74.21
2022-08-22T06:48:17.175Z,74.31
2022-08-22T06:49:26.014Z,74.69
2022-08-22T06:50:41.974Z,74.83
2022-08-22T06:51:50.216Z,74.80
2022-08-22T06:53:22.488Z,74.90
2022-08-22T06:54:34.531Z,74.76
2022-08-22T06:55:44.650Z,74.89
2022-08-22T06:56:54.256Z,75.45
2022-08-22T06:58:07.049Z,75.98
2022-08-22T06:59:20.140Z,75.74
2022-08-22T07:00:30.007Z,75.56
2022-08-22T07:01:44.690Z,75.62
2022-08-22T07:02:56.555Z,75.66
2022-08-22T07:04:08.525Z,76.31
2022-08-22T07:05:25.211Z,76.60
2022-08-22T07:06:40.577Z,76.41
2022-08-22T07:07:48.658Z,76.21
2022-08-22T07:08:58.770Z,76.36
2022-08-22T07:10:06.831Z,76.21
2022-08-22T07:11:19.073Z,76.40
2022-08-22T07:12:31.979Z,76.74
2022-08-22T07:13:40.219Z,76.90
2022-08-22T07:14:53.370Z,76.74
2022-08-22T07:16:01.260Z,76.81
2022-08-22T07:17:09.960Z,76.65
2022-08-22T07:18:21.543Z,76.68
2022-08-22T07:19:35.695Z,77.00
2022-08-22T07:20:47.219Z,77.23
2022-08-22T07:21:54.850Z,77.34
2022-08-22T07:23:04.816Z,77.37
2022-08-22T07:24:12.128Z,77.70
2022-08-22T07:25:19.379Z,77.71
2022-08-22T07:26:35.769Z,77.72
2022-08-22T07:28:04.093Z,77.79
2022-08-22T07:29:44.236Z,77.71
2022-08-22T07:30:59.331Z,77.66
2022-08-22T07:32:43.206Z,78.04
2022-08-22T07:33:57.321Z,78.33
2022-08-22T07:35:15.310Z,78.29
2022-08-22T07:36:27.360Z,78.38
2022-08-22T07:37:50.154Z,78.54
2022-08-22T07:39:21.534Z,78.86
2022-08-22T07:40:36.328Z,78.89
2022-08-22T07:42:02.109Z,78.68
2022-08-22T07:43:30.252Z,78.47
2022-08-22T07:45:13.141Z,78.60
2022-08-22T07:46:37.490Z,78.71
2022-08-22T07:48:05.760Z,78.67
2022-08-22T07:49:24.171Z,78.99
2022-08-22T07:50:45.204Z,79.18
2022-08-22T07:51:54.741Z,79.56
2022-08-22T07:53:27.591Z,79.36
2022-08-22T07:55:03.001Z,79.38
2022-08-22T07:56:14.619Z,79.77
2022-08-22T07:57:41.301Z,79.70
2022-08-22T07:58:50.000Z,79.81
2022-08-22T07:59:57.981Z,79.84
2022-08-22T08:01:05.211Z,79.83
2022-08-22T08:02:13.781Z,79.82
2022-08-22T08:03:23.332Z,80.02
2022-08-22T08:04:40.049Z,80.23
2022-08-22T08:05:48.428Z,80.47
2022-08-22T08:06:57.081Z,80.63
2022-08-22T08:08:15.522Z,80.54
2022-08-22T08:09:23.124Z,80.63
2022-08-22T08:10:36.611Z,80.58
2022-08-22T08:11:43.788Z,80.41
2022-08-22T08:13:02.282Z,81.01
2022-08-22T08:14:10.452Z,81.11
2022-08-22T08:15:23.370Z,81.36
2022-08-22T08:16:32.700Z,81.45
2022-08-22T08:17:39.922Z,81.42
2022-08-22T08:18:48.381Z,81.10
2022-08-22T08:19:55.402Z,80.88
2022-08-22T08:21:05.346Z,80.92
2022-08-22T08:22:18.977Z,81.03
2022-08-22T08:23:28.681Z,81.31
2022-08-22T08:24:42.142Z,81.57
2022-08-22T08:26:17.034Z,81.79
2022-08-22T08:27:44.497Z,81.95
2022-08-22T08:29:00.521Z,81.70
2022-08-22T08:30:16.410Z,81.74
2022-08-22T08:31:38.127Z,81.78
2022-08-22T08:32:57.445Z,81.52
2022-08-22T08:34:27.580Z,81.02
2022-08-22T08:35:42.305Z,81.02
2022-08-22T08:37:16.247Z,81.67
2022-08-22T08:38:30.139Z,82.24
2022-08-22T08:39:44.917Z,82.41
2022-08-22T08:41:13.943Z,82.66
2022-08-22T08:43:10.981Z,82.83
2022-08-22T08:44:37.583Z,82.39
2022-08-22T08:46:13.297Z,82.25
2022-08-22T08:47:33.081Z,81.97
2022-08-22T08:49:17.648Z,81.85
2022-08-22T08:50:52.046Z,81.63
2022-08-22T08:52:31.222Z,81.72
2022-08-22T08:54:00.240Z,81.77
2022-08-22T08:55:45.835Z,82.22
2022-08-22T08:57:25.980Z,83.26
2022-08-22T08:58:51.084Z,83.34
2022-08-22T09:00:23.123Z,83.53
2022-08-22T09:01:49.385Z,83.71
2022-08-22T09:03:15.655Z,84.14
2022-08-22T09:04:51.057Z,84.59
2022-08-22T09:06:02.873Z,84.77
2022-08-22T09:07:20.761Z,84.81
2022-08-22T09:08:50.681Z,85.20
2022-08-22T09:10:27.441Z,85.02
2022-08-22T09:12:15.812Z,85.02
2022-08-22T09:13:50.217Z,84.59
2022-08-22T09:15:02.003Z,84.46
2022-08-22T09:16:38.216Z,84.74
2022-08-22T09:18:00.411Z,84.91
2022-08-22T09:19:30.550Z,85.17
2022-08-22T09:21:02.617Z,85.32
2022-08-22T09:24:20.877Z,85.12
2022-08-22T09:25:52.254Z,85.29
2022-08-22T09:27:08.977Z,85.52
2022-08-22T09:28:34.583Z,85.81
2022-08-22T09:29:51.691Z,85.80
2022-08-22T09:31:16.795Z,85.84
2022-08-22T09:33:03.261Z,85.88
2022-08-22T09:34:31.535Z,85.51
2022-08-22T09:35:50.924Z,85.15
2022-08-22T09:37:24.285Z,85.80
2022-08-22T09:39:20.919Z,86.74
2022-08-22T09:40:33.022Z,86.61
2022-08-22T09:42:00.874Z,86.57
2022-08-22T09:43:21.089Z,86.61
2022-08-22T09:44:39.465Z,86.51
2022-08-22T09:46:02.288Z,86.30
2022-08-22T09:47:09.736Z,86.28
2022-08-22T09:48:23.850Z,86.12
2022-08-22T09:49:47.624Z,86.33
2022-08-22T09:51:33.083Z,86.13
2022-08-22T09:53:02.412Z,86.24
2022-08-22T09:54:12.649Z,86.72
2022-08-22T09:55:41.114Z,87.01
2022-08-22T09:57:09.503Z,86.78
2022-08-22T09:58:41.756Z,86.31
2022-08-22T10:00:26.821Z,86.09
2022-08-22T10:02:15.545Z,86.51
2022-08-22T10:03:51.674Z,87.42
2022-08-22T10:05:35.238Z,87.39
2022-08-22T10:07:25.845Z,87.11
2022-08-22T10:09:08.941Z,87.29
2022-08-22T10:10:27.336Z,88.23
2022-08-22T10:11:45.284Z,88.36
2022-08-22T10:13:29.771Z,88.71
2022-08-22T10:15:17.662Z,88.50
2022-08-22T10:16:38.355Z,88.32
2022-08-22T10:18:10.325Z,88.55
2022-08-22T10:19:44.769Z,88.70
2022-08-22T10:21:15.052Z,88.58
2022-08-22T10:22:29.768Z,88.46
2022-08-22T10:23:58.213Z,88.72
2022-08-22T10:25:11.613Z,88.85
2022-08-22T10:26:38.974Z,89.40
2022-08-22T10:28:02.183Z,88.98
2022-08-22T10:29:34.432Z,89.05
2022-08-22T10:30:47.394Z,88.71
2022-08-22T10:32:27.170Z,88.70
2022-08-22T10:33:44.303Z,89.00
2022-08-22T10:34:52.572Z,89.41
2022-08-22T10:36:11.971Z,89.59
2022-08-22T10:37:46.143Z,89.75
2022-08-22T10:38:57.874Z,89.95
2022-08-22T10:40:31.783Z,90.10
2022-08-22T10:42:03.203Z,89.98
2022-08-22T10:43:43.891Z,89.80
2022-08-22T10:45:24.087Z,90.02
2022-08-22T10:46:56.331Z,89.72
2022-08-22T10:48:09.030Z,89.73
2022-08-22T10:49:37.308Z,89.80
2022-08-22T10:50:51.173Z,89.35
2022-08-22T10:52:16.200Z,89.33
2022-08-22T10:53:44.245Z,89.20
2022-08-22T10:54:55.063Z,89.20
2022-08-22T10:56:27.881Z,89.00
2022-08-22T10:57:52.080Z,89.38
2022-08-22T10:59:24.212Z,89.86
2022-08-22T11:00:46.425Z,89.99
2022-08-22T11:02:20.373Z,90.09
2022-08-22T11:03:58.154Z,90.44
2022-08-22T11:05:19.211Z,90.34
2022-08-22T11:06:29.653Z,90.26
2022-08-22T11:07:57.445Z,90.33
2022-08-22T11:09:16.366Z,90.50
2022-08-22T11:10:50.565Z,90.35
2022-08-22T11:12:26.692Z,90.36
2022-08-22T11:14:04.423Z,90.41
2022-08-22T11:15:52.352Z,90.47
2022-08-22T11:17:30.209Z,91.05
2022-08-22T11:19:15.122Z,91.63
2022-08-22T11:20:44.722Z,91.47
2022-08-22T11:22:22.537Z,91.45
2022-08-22T11:23:41.603Z,91.06
2022-08-22T11:25:38.768Z,91.09
2022-08-22T11:26:50.370Z,91.63
2022-08-22T11:28:03.433Z,91.78
2022-08-22T11:29:26.674Z,91.83
2022-08-22T11:30:47.994Z,91.70
2022-08-22T11:32:10.832Z,91.53
2022-08-22T11:33:46.663Z,91.84
2022-08-22T11:34:55.685Z,91.07
2022-08-22T11:36:12.170Z,91.13
2022-08-22T11:37:42.700Z,91.17
2022-08-22T11:39:44.653Z,92.00
2022-08-22T11:41:16.945Z,91.58
2022-08-22T11:42:47.700Z,91.46
2022-08-22T11:44:08.110Z,91.43
2022-08-22T11:45:20.233Z,91.37
2022-08-22T11:46:39.250Z,91.02
2022-08-22T11:48:03.289Z,91.09
2022-08-22T11:49:21.223Z,91.20
2022-08-22T11:50:38.794Z,91.47
2022-08-22T11:52:04.993Z,91.73
2022-08-22T11:53:27.817Z,91.76
2022-08-22T11:55:00.253Z,91.67
2022-08-22T11:56:28.704Z,91.52
2022-08-22T11:58:08.603Z,91.57
2022-08-22T11:59:25.221Z,91.68
2022-08-22T12:00:50.073Z,91.65
2022-08-22T12:02:03.915Z,91.87
2022-08-22T12:03:23.193Z,92.40
2022-08-22T12:04:45.503Z,92.51
2022-08-22T12:05:53.782Z,92.42
2022-08-22T12:07:24.932Z,92.52
2022-08-22T12:08:32.377Z,92.38
2022-08-22T12:09:41.806Z,92.38
2022-08-22T12:11:08.785Z,92.05
2022-08-22T12:13:03.888Z,92.01
2022-08-22T12:14:20.815Z,91.89
2022-08-22T12:15:53.982Z,91.64
2022-08-22T12:17:55.116Z,91.10
2022-08-22T12:19:09.963Z,90.99
2022-08-22T12:20:23.805Z,90.55
2022-08-22T12:22:00.046Z,90.67
2022-08-22T12:23:30.036Z,90.84
2022-08-22T12:25:07.088Z,91.16
2022-08-22T12:26:32.701Z,91.72
2022-08-22T12:27:50.969Z,91.57
2022-08-22T12:29:34.055Z,91.41
2022-08-22T12:31:12.737Z,91.94
2022-08-22T12:32:34.899Z,91.95
2022-08-22T12:33:44.767Z,92.08
2022-08-22T12:35:32.383Z,92.06
2022-08-22T12:36:56.602Z,91.91
2022-08-22T12:38:28.277Z,91.68
2022-08-22T12:39:43.825Z,91.63
2022-08-22T12:41:28.079Z,91.64
2022-08-22T12:43:01.024Z,91.67
2022-08-22T12:44:29.145Z,91.52
2022-08-22T12:45:44.677Z,91.39
2022-08-22T12:47:26.973Z,91.54
2022-08-22T12:48:58.857Z,92.19
2022-08-22T12:50:31.987Z,92.55
2022-08-22T12:52:04.730Z,92.78
2022-08-22T12:53:26.327Z,92.85
2022-08-22T12:54:54.683Z,92.52
2022-08-22T12:56:16.105Z,92.32
2022-08-22T12:57:54.139Z,92.50
2022-08-22T12:59:31.735Z,92.65
2022-08-22T13:00:48.793Z,92.91
2022-08-22T13:01:58.429Z,93.20
2022-08-22T13:03:36.665Z,93.13
2022-08-22T13:05:19.553Z,93.10
2022-08-22T13:06:54.215Z,93.40
2022-08-22T13:08:05.160Z,93.61
2022-08-22T13:09:28.837Z,93.35
2022-08-22T13:10:49.161Z,93.14
2022-08-22T13:11:59.355Z,93.23
2022-08-22T13:13:12.100Z,93.25
2022-08-22T13:14:25.953Z,93.46
2022-08-22T13:15:39.401Z,93.57
2022-08-22T13:16:51.712Z,93.51
2022-08-22T13:18:25.258Z,93.68
2022-08-22T13:19:37.872Z,93.46
2022-08-22T13:20:46.093Z,93.34
2022-08-22T13:22:20.826Z,93.73
2022-08-22T13:23:34.311Z,93.82
2022-08-22T13:25:00.500Z,93.91
2022-08-22T13:26:33.453Z,94.05
2022-08-22T13:28:02.288Z,94.23
2022-08-22T13:29:26.802Z,94.25
2022-08-22T13:30:39.002Z,93.83
2022-08-22T13:31:46.019Z,93.85
2022-08-22T13:33:05.283Z,93.88
2022-08-22T13:34:34.789Z,93.79
2022-08-22T13:35:57.465Z,93.52
2022-08-22T13:37:04.851Z,93.61
2022-08-22T13:38:36.654Z,93.40
2022-08-22T13:39:46.919Z,93.23
2022-08-22T13:41:00.246Z,92.80
2022-08-22T13:42:14.621Z,92.33
2022-08-22T13:43:56.461Z,91.99
2022-08-22T13:45:06.445Z,91.86
2022-08-22T13:46:14.073Z,91.59
2022-08-22T13:47:24.462Z,91.03
2022-08-22T13:48:52.643Z,90.29
2022-08-22T13:50:20.354Z,89.51
2022-08-22T13:51:41.493Z,88.76
2022-08-22T13:52:57.840Z,88.29
2022-08-22T13:54:20.696Z,87.87
2022-08-22T13:55:35.530Z,87.25
2022-08-22T13:56:50.708Z,86.32
2022-08-22T13:58:07.678Z,85.31
2022-08-22T13:59:49.571Z,84.47
2022-08-22T14:01:09.644Z,83.66
2022-08-22T14:02:30.930Z,83.01
2022-08-22T14:04:34.609Z,82.63
2022-08-22T14:06:06.236Z,82.41
2022-08-22T14:07:53.001Z,82.45
2022-08-22T14:09:31.996Z,82.67
2022-08-22T14:10:42.636Z,82.68
2022-08-22T14:11:57.813Z,82.26
2022-08-22T14:13:19.032Z,81.06
2022-08-22T14:14:32.479Z,78.33
2022-08-22T14:15:45.203Z,77.79
2022-08-22T14:16:54.773Z,76.39
2022-08-22T14:18:11.925Z,75.03
2022-08-22T14:19:52.670Z,73.74
2022-08-22T14:21:33.472Z,73.52
2022-08-22T14:23:03.864Z,72.67
2022-08-22T14:24:19.473Z,71.97
2022-08-22T14:25:28.013Z,70.71
2022-08-22T14:26:47.449Z,69.08
2022-08-22T14:28:06.349Z,68.71
2022-08-22T14:29:18.022Z,67.71
2022-08-22T14:30:33.133Z,67.49
2022-08-22T14:31:41.242Z,67.64
2022-08-22T14:33:07.633Z,67.58
2022-08-22T14:34:16.117Z,67.50
2022-08-22T14:35:34.718Z,67.14
2022-08-22T14:36:48.133Z,66.50
2022-08-22T14:37:56.804Z,66.49
2022-08-22T14:39:12.574Z,65.43
2022-08-22T14:40:30.513Z,64.42
2022-08-22T14:41:55.543Z,63.93
2022-08-22T14:43:10.046Z,63.97
2022-08-22T14:44:24.335Z,63.50
2022-08-22T14:45:36.942Z,63.10
2022-08-22T14:46:58.577Z,62.96
2022-08-22T14:48:29.584Z,62.14
2022-08-22T14:49:52.833Z,62.09
2022-08-22T14:51:08.598Z,61.47
2022-08-22T14:52:30.273Z,61.16
2022-08-22T14:53:40.425Z,61.02
2022-08-22T14:54:48.635Z,60.72
2022-08-22T14:56:07.749Z,60.52
2022-08-22T14:57:20.102Z,60.83
2022-08-22T14:58:29.532Z,60.43
2022-08-22T14:59:47.054Z,60.09
2022-08-22T15:00:59.664Z,60.59
2022-08-22T15:02:16.052Z,60.73
2022-08-22T15:03:35.204Z,60.72
2022-08-22T15:05:05.415Z,60.16
2022-08-22T15:06:31.850Z,59.68
2022-08-22T15:07:40.961Z,59.91
2022-08-22T15:08:53.590Z,59.36
2022-08-22T15:10:21.504Z,58.95
2022-08-22T15:11:33.923Z,58.94
2022-08-22T15:12:51.001Z,59.17
2022-08-22T15:13:59.521Z,58.90
2022-08-22T15:15:41.262Z,58.74
2022-08-22T15:17:01.929Z,58.66
2022-08-22T15:18:20.577Z,58.69
2022-08-22T15:19:41.178Z,58.43
2022-08-22T15:20:52.224Z,57.51
2022-08-22T15:22:21.310Z,57.35
2022-08-22T15:23:34.488Z,57.43
2022-08-22T15:25:29.318Z,56.24
2022-08-22T15:26:52.320Z,54.72
2022-08-22T15:28:07.853Z,53.87
2022-08-22T15:29:29.006Z,53.86
2022-08-22T15:30:44.285Z,53.26
2022-08-22T15:31:57.164Z,53.42
2022-08-22T15:33:25.819Z,54.07
2022-08-22T15:34:34.521Z,53.88
2022-08-22T15:35:43.604Z,53.56
2022-08-22T15:37:20.452Z,53.22
2022-08-22T15:38:36.930Z,52.96
2022-08-22T15:40:08.125Z,52.25
2022-08-22T15:41:36.607Z,52.03
2022-08-22T15:42:48.111Z,52.17
2022-08-22T15:44:30.974Z,52.44
2022-08-22T15:45:41.583Z,52.77
2022-08-22T15:47:23.981Z,52.58
2022-08-22T15:48:40.391Z,52.54
2022-08-22T15:49:58.091Z,52.36
2022-08-22T15:51:16.205Z,51.87
2022-08-22T15:52:36.558Z,52.30
2022-08-22T15:53:47.173Z,52.17
2022-08-22T15:55:00.559Z,51.10
2022-08-22T15:56:20.745Z,51.00
2022-08-22T15:57:33.345Z,51.46
2022-08-22T15:58:49.650Z,51.46
2022-08-22T16:00:01.187Z,51.25
2022-08-22T16:01:20.479Z,51.43
2022-08-22T16:02:35.140Z,51.07
2022-08-22T16:04:03.803Z,50.82
2022-08-22T16:05:14.332Z,50.83
2022-08-22T16:06:54.895Z,50.84
2022-08-22T16:08:14.308Z,50.63
2022-08-22T16:09:49.096Z,50.07
2022-08-22T16:11:05.779Z,49.54
2022-08-22T16:12:20.457Z,49.10
2022-08-22T16:13:34.096Z,48.35
2022-08-22T16:14:47.550Z,48.38
2022-08-22T16:16:01.298Z,48.75
2022-08-22T16:17:29.285Z,48.46
2022-08-22T16:18:44.099Z,48.73
2022-08-22T16:19:51.639Z,48.74
2022-08-22T16:20:59.529Z,48.96
2022-08-22T16:22:09.039Z,48.74
2022-08-22T16:23:17.120Z,48.39
2022-08-22T16:24:25.251Z,48.01
2022-08-22T16:25:54.635Z,48.00
2022-08-22T16:27:02.720Z,47.90
2022-08-22T16:28:57.270Z,47.49
2022-08-22T16:30:10.713Z,47.08
2022-08-22T16:31:29.280Z,47.04
2022-08-22T16:32:37.780Z,46.82
2022-08-22T16:33:46.829Z,46.24
2022-08-22T16:34:54.968Z,46.14
2022-08-22T16:36:37.134Z,46.08
2022-08-22T16:37:51.774Z,46.61
2022-08-22T16:39:02.078Z,46.41
2022-08-22T16:40:15.809Z,45.90
2022-08-22T16:41:38.905Z,45.46
2022-08-22T16:42:48.899Z,45.86
2022-08-22T16:44:39.105Z,46.21
2022-08-22T16:45:47.997Z,45.91
2022-08-22T16:46:56.011Z,46.64
2022-08-22T16:48:36.525Z,46.58
2022-08-22T16:50:07.169Z,46.19
2022-08-22T16:51:22.847Z,46.23
2022-08-22T16:52:33.311Z,46.43
2022-08-22T16:53:45.683Z,46.86
2022-08-22T16:55:00.415Z,46.36
2022-08-22T16:56:40.889Z,46.56
2022-08-22T16:58:06.177Z,46.84
2022-08-22T16:59:40.118Z,46.85
2022-08-22T17:01:32.293Z,46.74
2022-08-22T17:02:40.617Z,46.90
2022-08-22T17:03:57.373Z,47.15
2022-08-22T17:06:03.415Z,47.09
2022-08-22T17:07:23.648Z,46.60
2022-08-22T17:08:58.888Z,46.90
2022-08-22T17:10:15.068Z,47.34
2022-08-22T17:11:40.626Z,47.24
2022-08-22T17:12:59.935Z,46.85
2022-08-22T17:14:28.449Z,47.05
2022-08-22T17:15:49.144Z,47.66
2022-08-22T17:17:07.026Z,47.28
2022-08-22T17:18:38.350Z,47.00
2022-08-22T17:20:01.830Z,46.79
2022-08-22T17:21:18.848Z,46.71
2022-08-22T17:22:35.024Z,46.43
2022-08-22T17:24:09.945Z,45.76
2022-08-22T17:25:57.504Z,46.27
2022-08-22T17:27:30.756Z,46.36
2022-08-22T17:28:43.422Z,46.51
2022-08-22T17:30:05.756Z,46.40
2022-08-22T17:31:44.876Z,46.24
2022-08-22T17:33:08.784Z,46.00
2022-08-22T17:34:46.246Z,45.62
2022-08-22T17:36:26.336Z,45.27
2022-08-22T17:37:47.277Z,45.17
2022-08-22T17:39:20.067Z,44.78
2022-08-22T17:40:48.428Z,44.33
2022-08-22T17:42:08.746Z,44.20
2022-08-22T17:43:33.474Z,44.38
2022-08-22T17:45:06.546Z,44.38
2022-08-22T17:46:45.273Z,44.52
2022-08-22T17:48:21.276Z,44.36
2022-08-22T17:49:48.546Z,43.70
2022-08-22T17:51:13.922Z,43.36